Time;durP1;ratioP1;P1;durP2;ratioP2;P2;SDS_P1;SDS_P2;PMS_P1;PMS_P2;Temp;Humidity;BMP_temperature;BMP_pressure;BME280_temperature;BME280_humidity;BME280_pressure;Samples;Min_cycle;Max_cycle;Signal;HPM_P1;HPM_P2
2023/03/16 00:01:34;;;;;;;;;;;;;;;16.38;43.60;93530.50;5017785;28;19998;-85
2023/03/16 00:04:01;;;;;;;;;;;;;;;16.40;43.66;93528.03;5023533;28;19939;-87
2023/03/16 00:06:26;;;;;;;;;;;;;;;16.39;43.93;93532.00;5041960;28;19932;-85
2023/03/16 00:08:51;;;;;;;;;;;;;;;16.39;43.58;93539.44;5034417;28;19990;-89
2023/03/16 00:11:16;;;;;;;;;;;;;;;16.37;44.12;93528.28;5024188;28;19939;-86
2023/03/16 00:13:41;;;;;;;;;;;;;;;16.38;43.83;93535.97;5055207;28;19928;-87
2023/03/16 00:16:07;;;;;;;;;;;;;;;16.39;44.07;93539.44;5017610;28;19960;-86
2023/03/16 00:18:37;;;;;;;;;;;;;;;16.40;44.06;93544.41;5035184;28;19921;-86
2023/03/16 00:21:04;;;;;;;;;;;;;;;16.39;43.94;93534.72;5049393;28;19940;-86
2023/03/16 00:23:34;;;;;;;;;;;;;;;16.39;44.07;93537.44;5036112;28;19920;-86
2023/03/16 00:26:01;;;;;;;;;;;;;;;16.38;44.01;93530.50;5023653;28;19929;-87
2023/03/16 00:28:27;;;;;;;;;;;;;;;16.38;43.90;93548.84;5054796;28;19948;-86
2023/03/16 00:30:57;;;;;;;;;;;;;;;16.37;43.91;93539.19;5050190;28;19968;-86
2023/03/16 00:33:22;;;;;;;;;;;;;;;16.37;43.85;93545.38;5034705;28;19928;-86
2023/03/16 00:35:48;;;;;;;;;;;;;;;16.36;43.82;93541.16;5025364;28;19978;-86
2023/03/16 00:38:14;;;;;;;;;;;;;;;16.38;43.82;93535.97;5028820;28;19981;-86
2023/03/16 00:40:39;;;;;;;;;;;;;;;16.38;43.83;93544.16;5062397;28;19928;-86
2023/03/16 00:43:04;;;;;;;;;;;;;;;16.39;43.52;93540.19;5038681;28;19931;-86
2023/03/16 00:45:29;;;;;;;;;;;;;;;16.38;43.60;93535.97;5053316;28;20252;-86
2023/03/16 00:47:55;;;;;;;;;;;;;;;16.37;44.04;93539.19;5051686;28;19928;-86
2023/03/16 00:50:21;;;;;;;;;;;;;;;16.35;43.67;93545.13;5049812;28;19924;-86
2023/03/16 00:52:46;;;;;;;;;;;;;;;16.34;43.82;93540.91;5031272;28;20343;-86
2023/03/16 00:55:12;;;;;;;;;;;;;;;16.34;43.93;93548.34;5046402;28;19935;-86
2023/03/16 00:57:37;;;;;;;;;;;;;;;16.34;44.13;93546.38;5045408;28;19929;-86
2023/03/16 01:00:11;;;;;;;;;;;;;;;16.34;43.63;93551.81;5049787;28;20335;-87
2023/03/16 01:02:36;;;;;;;;;;;;;;;16.32;43.93;93548.84;5022345;28;20017;-86
2023/03/16 01:05:04;;;;;;;;;;;;;;;16.35;43.98;93549.84;5054080;28;20363;-86
2023/03/16 01:07:30;;;;;;;;;;;;;;;16.34;44.01;93545.63;5015890;28;19980;-87
2023/03/16 01:09:55;;;;;;;;;;;;;;;16.34;43.46;93553.81;5062543;28;20043;-86
2023/03/16 01:12:21;;;;;;;;;;;;;;;16.34;43.76;93548.34;5031714;28;19928;-86
2023/03/16 01:14:46;;;;;;;;;;;;;;;16.32;44.21;93535.19;5043451;28;20298;-85
2023/03/16 01:17:16;;;;;;;;;;;;;;;16.31;44.13;93544.63;5064369;28;20299;-86
2023/03/16 01:19:41;;;;;;;;;;;;;;;16.30;43.93;93551.31;5057719;28;20434;-86
2023/03/16 01:22:07;;;;;;;;;;;;;;;16.30;43.81;93551.31;5031354;28;19955;-86
2023/03/16 01:24:33;;;;;;;;;;;;;;;16.30;43.82;93545.84;5062596;28;19944;-86
2023/03/16 01:26:58;;;;;;;;;;;;;;;16.31;44.07;93547.34;5032362;28;19925;-86
2023/03/16 01:29:24;;;;;;;;;;;;;;;16.30;43.53;93543.13;5033630;28;19931;-86
2023/03/16 01:31:49;;;;;;;;;;;;;;;16.31;44.09;93543.88;5031833;28;19929;-86
2023/03/16 01:34:17;;;;;;;;;;;;;;;16.30;43.94;93550.56;5020804;28;20387;-87
2023/03/16 01:36:44;;;;;;;;;;;;;;;16.30;44.06;93553.28;5050618;28;19925;-86
2023/03/16 01:39:10;;;;;;;;;;;;;;;16.29;43.81;93549.81;5029675;28;19916;-86
2023/03/16 01:41:35;;;;;;;;;;;;;;;16.29;44.07;93547.09;5036771;28;19931;-86
2023/03/16 01:44:01;;;;;;;;;;;;;;;16.30;43.61;93553.28;5026964;28;19920;-86
2023/03/16 01:46:26;;;;;;;;;;;;;;;16.30;43.86;93553.28;5044833;28;20664;-87
2023/03/16 01:48:57;;;;;;;;;;;;;;;16.31;43.97;93552.06;5047851;28;19925;-86
2023/03/16 01:51:42;;;;;;;;;;;;;;;16.30;43.80;93545.13;5058827;28;20409;-86
2023/03/16 01:54:14;;;;;;;;;;;;;;;16.31;43.79;93544.63;5065321;28;19936;-86
2023/03/16 01:56:44;;;;;;;;;;;;;;;16.29;43.72;93544.38;5017626;28;20395;-85
2023/03/16 01:59:12;;;;;;;;;;;;;;;16.30;43.89;93531.47;5030218;28;19935;-87
2023/03/16 02:01:37;;;;;;;;;;;;;;;16.29;43.82;93543.63;5042020;28;19932;-86
2023/03/16 02:04:12;;;;;;;;;;;;;;;16.29;43.65;93540.88;5047936;28;19992;-86
2023/03/16 02:06:38;;;;;;;;;;;;;;;16.29;43.86;93547.09;5031477;28;19928;-86
2023/03/16 02:09:03;;;;;;;;;;;;;;;16.30;43.76;93548.59;5031071;28;19943;-87
2023/03/16 02:11:28;;;;;;;;;;;;;;;16.29;43.71;93547.09;5061327;28;20560;-86
2023/03/16 02:13:53;;;;;;;;;;;;;;;16.30;43.64;93548.59;5044154;28;19932;-86
2023/03/16 02:16:21;;;;;;;;;;;;;;;16.31;43.57;93560.25;5051360;28;20366;-88
2023/03/16 02:18:46;;;;;;;;;;;;;;;16.31;43.62;93552.06;5030353;28;19932;-86
2023/03/16 02:21:32;;;;;;;;;;;;;;;16.32;43.44;93553.56;5040472;28;20385;-86
2023/03/16 02:23:57;;;;;;;;;;;;;;;16.30;43.47;93564.22;5061980;28;19982;-86
2023/03/16 02:26:32;;;;;;;;;;;;;;;16.30;43.78;93558.75;5023251;28;20020;-86
2023/03/16 02:29:10;;;;;;;;;;;;;;;16.31;43.74;93563.72;5032855;28;20426;-86
2023/03/16 02:31:35;;;;;;;;;;;;;;;16.32;43.65;93565.22;5066619;28;19928;-86
2023/03/16 02:34:00;;;;;;;;;;;;;;;16.31;43.52;93562.97;5043909;28;19924;-86
2023/03/16 02:36:26;;;;;;;;;;;;;;;16.31;43.05;93569.16;5051607;28;19928;-87
2023/03/16 02:38:51;;;;;;;;;;;;;;;16.32;43.61;93567.19;5035941;28;20374;-86
2023/03/16 02:41:17;;;;;;;;;;;;;;;16.32;43.55;93565.22;5043254;28;19933;-86
2023/03/16 02:43:56;;;;;;;;;;;;;;;16.33;43.53;93566.69;5055084;28;19935;-87
2023/03/16 02:46:22;;;;;;;;;;;;;;;16.32;43.37;93572.66;5054023;28;19924;-86
2023/03/16 02:49:03;;;;;;;;;;;;;;;16.32;43.70;93569.91;5015637;28;19925;-86
2023/03/16 02:51:28;;;;;;;;;;;;;;;16.32;43.14;93569.91;5057052;28;19963;-86
2023/03/16 02:53:54;;;;;;;;;;;;;;;16.31;43.77;93562.97;5041828;28;20382;-86
2023/03/16 02:56:19;;;;;;;;;;;;;;;16.30;43.33;93572.38;5047189;28;19924;-86
2023/03/16 02:58:44;;;;;;;;;;;;;;;16.30;43.81;93583.31;5049272;28;20046;-86
2023/03/16 03:01:10;;;;;;;;;;;;;;;16.28;43.63;93569.41;5043659;28;19936;-86
2023/03/16 03:03:35;;;;;;;;;;;;;;;16.30;43.64;93578.59;5060393;28;19974;-86
2023/03/16 03:06:01;;;;;;;;;;;;;;;16.27;43.60;93581.56;5031777;28;20011;-86
2023/03/16 03:08:26;;;;;;;;;;;;;;;16.28;43.38;93589.25;5031436;28;20302;-86
2023/03/16 03:10:51;;;;;;;;;;;;;;;16.28;43.49;93589.25;5051908;28;20354;-86
2023/03/16 03:13:16;;;;;;;;;;;;;;;16.26;43.81;93591.72;5051760;28;19981;-86
2023/03/16 03:15:42;;;;;;;;;;;;;;;16.26;43.96;93596.44;5061018;28;19964;-86
2023/03/16 03:18:07;;;;;;;;;;;;;;;16.26;43.74;93586.25;5020345;28;20326;-86
2023/03/16 03:20:33;;;;;;;;;;;;;;;16.27;43.96;93592.47;5033228;28;20023;-86
2023/03/16 03:22:58;;;;;;;;;;;;;;;16.28;43.26;93588.50;5055856;28;19924;-87
2023/03/16 03:25:23;;;;;;;;;;;;;;;16.27;43.97;93590.47;5066577;28;19932;-88
2023/03/16 03:27:49;;;;;;;;;;;;;;;16.28;43.72;93594.69;5022916;28;20443;-86
2023/03/16 03:30:16;;;;;;;;;;;;;;;16.28;43.28;93589.25;5019887;28;19921;-86
2023/03/16 03:32:41;;;;;;;;;;;;;;;16.26;43.80;93591.72;5036792;28;19928;-86
2023/03/16 03:35:06;;;;;;;;;;;;;;;16.26;43.82;93594.44;5046949;28;19927;-86
2023/03/16 03:37:32;;;;;;;;;;;;;;;16.26;43.66;93591.72;5032198;28;19925;-86
2023/03/16 03:39:57;;;;;;;;;;;;;;;16.28;43.84;93580.31;5029647;28;19928;-86
2023/03/16 03:42:22;;;;;;;;;;;;;;;16.28;43.49;93594.69;5047318;28;20352;-86
2023/03/16 03:44:48;;;;;;;;;;;;;;;16.28;43.20;93591.22;5066396;28;19921;-86
2023/03/16 03:47:13;;;;;;;;;;;;;;;16.27;43.73;93584.28;5049694;28;19932;-86
2023/03/16 03:49:38;;;;;;;;;;;;;;;16.27;43.61;93592.47;5039609;28;19965;-87
2023/03/16 03:52:04;;;;;;;;;;;;;;;16.26;43.78;93591.72;5031065;28;20420;-86
2023/03/16 03:54:29;;;;;;;;;;;;;;;16.27;43.63;93601.41;5041178;28;19932;-86
2023/03/16 03:56:55;;;;;;;;;;;;;;;16.26;43.67;93590.97;5049222;28;20639;-86
2023/03/16 03:59:21;;;;;;;;;;;;;;;16.26;43.49;93610.06;5019461;28;19924;-86
2023/03/16 04:01:47;;;;;;;;;;;;;;;16.25;43.48;93603.13;5041419;28;19951;-86
2023/03/16 04:04:13;;;;;;;;;;;;;;;16.25;43.70;93606.59;5049898;28;20034;-88
2023/03/16 04:06:38;;;;;;;;;;;;;;;16.25;43.79;93598.41;5054376;28;20019;-86
2023/03/16 04:09:04;;;;;;;;;;;;;;;16.25;43.48;93608.56;5048638;28;19933;-86
2023/03/16 04:11:29;;;;;;;;;;;;;;;16.26;43.42;93597.19;5058679;28;19983;-86
2023/03/16 04:13:54;;;;;;;;;;;;;;;16.26;43.81;93613.53;5037272;28;19975;-86
2023/03/16 04:16:20;;;;;;;;;;;;;;;16.26;43.55;93605.34;5056936;28;19921;-86
2023/03/16 04:18:45;;;;;;;;;;;;;;;16.25;43.37;93617.50;5046514;28;20371;-86
2023/03/16 04:21:13;;;;;;;;;;;;;;;16.26;43.37;93615.53;5054387;28;19927;-87
2023/03/16 04:23:38;;;;;;;;;;;;;;;16.26;43.00;93619.00;5057255;28;19920;-89
2023/03/16 04:26:04;;;;;;;;;;;;;;;16.27;43.68;93619.75;5051348;28;19983;-86
2023/03/16 04:28:31;;;;;;;;;;;;;;;16.25;43.28;93617.50;5035467;28;20015;-86
2023/03/16 04:31:00;;;;;;;;;;;;;;;16.25;43.44;93622.97;5050457;28;19924;-86
2023/03/16 04:33:25;;;;;;;;;;;;;;;16.24;43.44;93624.19;5040810;28;19932;-86
2023/03/16 04:35:51;;;;;;;;;;;;;;;16.24;43.58;93615.28;5031850;28;19924;-87
2023/03/16 04:38:16;;;;;;;;;;;;;;;16.24;43.33;93620.75;5039176;28;19970;-90
2023/03/16 04:40:41;;;;;;;;;;;;;;;16.23;43.75;93616.53;5044447;28;20394;-88
2023/03/16 04:43:06;;;;;;;;;;;;;;;16.23;43.69;93620.00;5025627;28;19925;-88
2023/03/16 04:45:32;;;;;;;;;;;;;;;16.21;43.84;93619.00;5052540;28;19924;-88
2023/03/16 04:47:57;;;;;;;;;;;;;;;16.21;43.18;93622.47;5026350;28;19932;-87
2023/03/16 04:50:22;;;;;;;;;;;;;;;16.21;43.61;93621.72;5038292;28;20519;-89
2023/03/16 04:52:48;;;;;;;;;;;;;;;16.21;43.31;93625.19;5033356;28;19936;-87
2023/03/16 04:55:13;;;;;;;;;;;;;;;16.19;43.52;93614.03;5048832;28;19935;-89
2023/03/16 04:57:38;;;;;;;;;;;;;;;16.23;43.57;93611.06;5047599;28;19991;-88
2023/03/16 05:00:11;;;;;;;;;;;;;;;16.23;43.80;93611.81;5019867;28;19925;-87
2023/03/16 05:02:36;;;;;;;;;;;;;;;16.19;40.33;93618.75;5026868;28;20331;-87
2023/03/16 05:05:03;;;;;;;;;;;;;;;16.10;40.69;93619.69;5023186;28;19932;-89
2023/03/16 05:07:28;;;;;;;;;;;;;;;16.10;41.06;93636.06;5018930;28;20364;-90
2023/03/16 05:09:54;;;;;;;;;;;;;;;16.11;41.25;93624.66;5027242;28;19944;-89
2023/03/16 05:12:19;;;;;;;;;;;;;;;16.16;41.46;93633.34;5020359;28;19983;-89
2023/03/16 05:14:45;;;;;;;;;;;;;;;16.18;42.39;93633.63;5037706;28;19929;-90
2023/03/16 05:17:13;;;;;;;;;;;;;;;16.18;43.02;93637.09;5026328;28;19929;-88
2023/03/16 05:19:39;;;;;;;;;;;;;;;16.15;43.16;93637.31;5019652;28;20306;-88
2023/03/16 05:22:05;;;;;;;;;;;;;;;16.14;42.63;93644.75;5036883;28;20498;-88
2023/03/16 05:24:30;;;;;;;;;;;;;;;16.19;42.74;93644.03;5020680;28;19929;-89
2023/03/16 05:26:56;;;;;;;;;;;;;;;16.20;42.25;93642.06;5045983;28;19925;-88
2023/03/16 05:29:21;;;;;;;;;;;;;;;16.19;42.87;93651.47;5045080;28;20402;-91
2023/03/16 05:31:47;;;;;;;;;;;;;;;16.19;42.71;93644.03;5025652;28;19932;-90
2023/03/16 05:34:12;;;;;;;;;;;;;;;16.21;42.96;93643.56;5037258;28;19925;-89
2023/03/16 05:36:37;;;;;;;;;;;;;;;16.24;43.08;93639.84;5029384;28;19957;-89
2023/03/16 05:39:03;;;;;;;;;;;;;;;16.28;42.82;93640.34;5025180;28;19925;-88
2023/03/16 05:41:28;;;;;;;;;;;;;;;16.33;43.12;93643.09;5045687;28;19929;-89
2023/03/16 05:43:54;;;;;;;;;;;;;;;16.36;43.44;93647.56;5040716;28;20311;-88
2023/03/16 05:46:19;;;;;;;;;;;;;;;16.38;42.83;93642.38;5022165;28;19925;-87
2023/03/16 05:48:45;;;;;;;;;;;;;;;16.37;42.41;93640.13;5047889;28;20390;-90
2023/03/16 05:51:13;;;;;;;;;;;;;;;16.33;42.69;93640.34;5046849;28;19928;-90
2023/03/16 05:53:38;;;;;;;;;;;;;;;16.33;42.84;93642.34;5048506;28;19956;-89
2023/03/16 05:56:04;;;;;;;;;;;;;;;16.32;42.24;93647.03;5045247;28;19990;-89
2023/03/16 05:58:32;;;;;;;;;;;;;;;16.32;42.24;93640.84;5035921;28;20083;-88
2023/03/16 06:00:59;;;;;;;;;;;;;;;16.33;42.09;93642.34;5041410;28;19974;-87
2023/03/16 06:03:25;;;;;;;;;;;;;;;16.31;40.73;93639.34;5026347;28;19943;-89
2023/03/16 06:05:50;;;;;;;;;;;;;;;16.25;38.32;93646.75;5041464;28;19924;-88
2023/03/16 06:08:18;;;;;;;;;;;;;;;16.14;36.72;93649.47;5027028;28;19929;-89
2023/03/16 06:10:45;;;;;;;;;;;;;;;16.08;36.85;93647.44;5039910;28;19931;-90
2023/03/16 06:13:10;;;;;;;;;;;;;;;16.09;37.13;93654.41;5024396;28;20016;-89
2023/03/16 06:15:36;;;;;;;;;;;;;;;16.09;37.11;93659.09;5038002;28;20075;-87
2023/03/16 06:18:01;;;;;;;;;;;;;;;16.09;37.32;93643.50;5024674;28;19931;-87
2023/03/16 06:20:27;;;;;;;;;;;;;;;16.14;37.23;93654.91;5046650;28;19925;-88
2023/03/16 06:22:54;;;;;;;;;;;;;;;16.17;37.47;93651.22;5040151;28;19986;-88
2023/03/16 06:25:19;;;;;;;;;;;;;;;16.20;38.55;93652.97;5036485;28;20000;-88
2023/03/16 06:27:44;;;;;;;;;;;;;;;16.23;39.09;93657.44;5044112;28;19921;-86
2023/03/16 06:30:10;;;;;;;;;;;;;;;16.23;38.69;93658.19;5023188;28;19932;-88
2023/03/16 06:32:36;;;;;;;;;;;;;;;16.23;38.59;93663.66;5023577;28;19939;-88
2023/03/16 06:35:02;;;;;;;;;;;;;;;16.22;37.72;93658.69;5037013;28;19929;-88
2023/03/16 06:37:28;;;;;;;;;;;;;;;16.20;38.00;93675.53;5041438;28;20409;-87
2023/03/16 06:39:53;;;;;;;;;;;;;;;16.20;38.61;93674.78;5042911;28;20027;-88
2023/03/16 06:42:19;;;;;;;;;;;;;;;16.24;39.18;93672.56;5040776;28;19990;-85
2023/03/16 06:44:44;;;;;;;;;;;;;;;16.24;37.89;93683.50;5017042;28;19925;-86
2023/03/16 06:47:09;;;;;;;;;;;;;;;16.17;38.19;93681.22;5040600;28;19936;-86
2023/03/16 06:49:35;;;;;;;;;;;;;;;16.20;37.42;93688.44;5026506;28;19968;-84
2023/03/16 06:52:02;;;;;;;;;;;;;;;16.21;37.96;93687.19;5029549;28;20016;-86
2023/03/16 06:54:27;;;;;;;;;;;;;;;16.23;38.25;93688.19;5033678;28;19939;-85
2023/03/16 06:56:52;;;;;;;;;;;;;;;16.26;38.68;93687.19;5019361;28;19928;-86
2023/03/16 06:59:17;;;;;;;;;;;;;;;16.30;39.33;93689.69;5039468;28;19932;-86
2023/03/16 07:01:43;;;;;;;;;;;;;;;16.29;39.99;93686.22;5043326;28;19931;-85
2023/03/16 07:04:09;;;;;;;;;;;;;;;16.33;39.45;93694.16;5042509;28;19955;-86
2023/03/16 07:06:34;;;;;;;;;;;;;;;16.37;40.02;93689.22;5034322;28;19955;-87
2023/03/16 07:09:00;;;;;;;;;;;;;;;16.39;40.69;93686.75;5042065;28;19928;-89
2023/03/16 07:11:25;;;;;;;;;;;;;;;16.42;40.30;93680.31;5043865;28;19924;-86
2023/03/16 07:13:51;;;;;;;;;;;;;;;16.44;40.50;93692.25;5015894;28;19968;-86
2023/03/16 07:16:16;;;;;;;;;;;;;;;16.45;40.47;93693.00;5030612;28;19932;-85
2023/03/16 07:18:43;;;;;;;;;;;;;;;16.45;40.51;93690.25;5031246;28;19955;-84
2023/03/16 07:21:08;;;;;;;;;;;;;;;16.48;39.98;93693.97;5041860;28;19928;-86
2023/03/16 07:23:33;;;;;;;;;;;;;;;16.48;40.01;93686.53;5024107;28;20330;-84
2023/03/16 07:25:59;;;;;;;;;;;;;;;16.52;39.96;93689.78;5028683;28;19924;-90
2023/03/16 07:28:25;;;;;;;;;;;;;;;16.53;39.95;93685.81;5050676;28;19915;-86
2023/03/16 07:30:50;;;;;;;;;;;;;;;16.55;40.23;93688.78;5057861;28;19927;-85
2023/03/16 07:33:16;;;;;;;;;;;;;;;16.56;40.20;93697.72;5029295;28;19928;-87
2023/03/16 07:35:41;;;;;;;;;;;;;;;16.59;40.21;93683.84;5018378;28;19929;-86
2023/03/16 07:38:09;;;;;;;;;;;;;;;16.58;40.37;93693.28;5047154;28;19957;-85
2023/03/16 07:40:34;;;;;;;;;;;;;;;16.57;40.33;93689.06;5032851;28;19928;-89
2023/03/16 07:43:00;;;;;;;;;;;;;;;16.57;40.00;93691.03;5047214;28;19931;-87
2023/03/16 07:45:25;;;;;;;;;;;;;;;16.56;40.12;93689.53;5044471;28;19936;-87
2023/03/16 07:47:50;;;;;;;;;;;;;;;16.57;40.08;93699.97;5045969;28;19924;-87
2023/03/16 07:50:18;;;;;;;;;;;;;;;16.59;40.25;93702.22;5031426;28;19920;-87
2023/03/16 07:52:44;;;;;;;;;;;;;;;16.61;40.37;93702.47;5060107;28;19936;-87
2023/03/16 07:55:11;;;;;;;;;;;;;;;16.60;40.25;93700.97;5037229;28;20421;-90
2023/03/16 07:57:38;;;;;;;;;;;;;;;16.61;40.41;93697.00;5041546;28;19924;-90
2023/03/16 08:00:04;;;;;;;;;;;;;;;16.61;40.45;93708.66;5029233;28;19931;-89
2023/03/16 08:02:30;;;;;;;;;;;;;;;16.62;40.07;93712.88;5039922;28;19994;-88
2023/03/16 08:04:56;;;;;;;;;;;;;;;16.60;40.33;93701.72;5044311;28;19932;-91
2023/03/16 08:07:21;;;;;;;;;;;;;;;16.61;40.36;93716.84;5046197;28;19984;-89
2023/03/16 08:09:47;;;;;;;;;;;;;;;16.60;40.35;93709.91;5037277;28;19956;-92
2023/03/16 08:12:12;;;;;;;;;;;;;;;16.61;40.52;93716.84;5029343;28;19937;-89
2023/03/16 08:14:37;;;;;;;;;;;;;;;16.66;40.16;93712.69;5038367;28;20398;-91
2023/03/16 08:17:03;;;;;;;;;;;;;;;16.62;40.23;93717.59;5027000;28;19936;-89
2023/03/16 08:19:28;;;;;;;;;;;;;;;16.59;38.87;93724.03;5027757;28;19929;-89
2023/03/16 08:21:54;;;;;;;;;;;;;;;16.60;39.37;93720.06;5017730;28;19933;-87
2023/03/16 08:24:19;;;;;;;;;;;;;;;16.61;39.02;93721.56;5026445;28;19964;-87
2023/03/16 08:26:44;;;;;;;;;;;;;;;16.53;37.84;93717.81;5028213;28;20015;-88
2023/03/16 08:29:10;;;;;;;;;;;;;;;16.48;37.38;93724.72;5037545;28;19936;-87
2023/03/16 08:31:36;;;;;;;;;;;;;;;16.49;37.40;93722.75;5032606;28;19931;-87
2023/03/16 08:34:02;;;;;;;;;;;;;;;16.53;38.15;93718.56;5023224;28;19936;-88
2023/03/16 08:36:27;;;;;;;;;;;;;;;16.55;38.42;93727.00;5026855;28;19929;-88
2023/03/16 08:38:54;;;;;;;;;;;;;;;16.59;38.61;93724.03;5034934;28;19956;-90
2023/03/16 08:41:19;;;;;;;;;;;;;;;16.58;39.15;93728.75;5048424;28;19929;-87
2023/03/16 08:43:45;;;;;;;;;;;;;;;16.60;39.42;93720.81;5036895;28;19925;-89
2023/03/16 08:46:12;;;;;;;;;;;;;;;16.63;39.89;93719.88;5043442;28;19979;-88
2023/03/16 08:48:40;;;;;;;;;;;;;;;16.64;39.74;93710.44;5040103;28;20003;-87
2023/03/16 08:51:05;;;;;;;;;;;;;;;16.64;40.01;93718.63;5032187;28;19928;-88
2023/03/16 08:53:31;;;;;;;;;;;;;;;16.68;40.38;93721.84;5029080;28;20011;-88
2023/03/16 08:56:00;;;;;;;;;;;;;;;16.67;40.01;93725.81;5046879;28;19955;-89
2023/03/16 08:58:26;;;;;;;;;;;;;;;16.57;37.31;93715.59;5018367;28;19964;-89
2023/03/16 09:00:51;;;;;;;;;;;;;;;16.48;36.52;93715.78;5030875;28;20028;-90
2023/03/16 09:03:17;;;;;;;;;;;;;;;16.47;36.36;93723.25;5040411;28;20058;-90
2023/03/16 09:05:42;;;;;;;;;;;;;;;16.46;36.16;93733.41;5040266;28;19921;-91
2023/03/16 09:08:07;;;;;;;;;;;;;;;16.50;36.78;93727.72;5035541;28;19976;-89
2023/03/16 09:10:33;;;;;;;;;;;;;;;16.50;36.91;93718.78;5039616;28;19925;-89
2023/03/16 09:12:58;;;;;;;;;;;;;;;16.51;37.30;93723.00;5031754;28;19928;-88
2023/03/16 09:15:23;;;;;;;;;;;;;;;16.52;37.23;93729.97;5047984;28;19925;-90
2023/03/16 09:17:49;;;;;;;;;;;;;;;16.53;37.41;93720.53;5035908;28;19921;-91
2023/03/16 09:20:16;;;;;;;;;;;;;;;16.54;38.16;93730.97;5025012;28;19928;-89
2023/03/16 09:22:41;;;;;;;;;;;;;;;16.59;38.15;93735.69;5035192;28;19929;-89
2023/03/16 09:25:09;;;;;;;;;;;;;;;16.62;38.46;93732.00;5037287;28;20618;-90
2023/03/16 09:27:35;;;;;;;;;;;;;;;16.63;38.31;93724.56;5030830;28;19929;-89
2023/03/16 09:30:02;;;;;;;;;;;;;;;16.65;38.71;93731.03;5041150;28;19917;-90
2023/03/16 09:32:27;;;;;;;;;;;;;;;16.66;38.91;93729.81;5050987;28;19936;-88
2023/03/16 09:34:53;;;;;;;;;;;;;;;16.66;39.00;93729.06;5045452;28;19979;-88
2023/03/16 09:37:19;;;;;;;;;;;;;;;16.67;39.50;93736.00;5037654;28;19933;-89
2023/03/16 09:39:46;;;;;;;;;;;;;;;16.68;39.26;93729.28;5040477;28;21089;-89
2023/03/16 09:42:30;;;;;;;;;;;;;;;16.67;39.09;93733.28;5024434;28;20375;-89
2023/03/16 09:45:02;;;;;;;;;;;;;;;16.70;39.22;93729.56;5048016;28;19960;-88
2023/03/16 09:47:29;;;;;;;;;;;;;;;16.73;39.20;93729.31;5033874;28;20318;-90
2023/03/16 09:49:55;;;;;;;;;;;;;;;16.73;39.53;93732.03;5027535;28;19941;-93
2023/03/16 09:52:21;;;;;;;;;;;;;;;16.77;39.45;93720.91;5023555;28;20454;-91
2023/03/16 09:54:55;;;;;;;;;;;;;;;16.78;39.27;93733.31;5023153;28;19929;-87
2023/03/16 09:57:34;;;;;;;;;;;;;;;16.79;39.54;93732.81;5025908;28;20075;-86
2023/03/16 10:00:06;;;;;;;;;;;;;;;16.79;39.30;93734.81;5034164;28;19986;-90
2023/03/16 10:02:31;;;;;;;;;;;;;;;16.79;39.59;93737.53;5016752;28;19928;-87
2023/03/16 10:05:09;;;;;;;;;;;;;;;16.81;39.38;93740.53;5048374;28;20410;-91
2023/03/16 10:07:35;;;;;;;;;;;;;;;16.81;39.28;93743.25;5018488;28;19995;-91
2023/03/16 10:10:09;;;;;;;;;;;;;;;16.78;39.43;93725.88;5031965;28;20016;-89
2023/03/16 10:12:40;;;;;;;;;;;;;;;16.79;39.42;93734.81;5029286;28;19940;-88
2023/03/16 10:15:12;;;;;;;;;;;;;;;16.79;39.66;93738.28;5010455;28;19925;-89
2023/03/16 10:17:39;;;;;;;;;;;;;;;16.77;39.72;93734.53;5025776;28;20202;-90
2023/03/16 10:20:08;;;;;;;;;;;;;;;16.77;39.64;93732.56;5018150;28;19935;-90
2023/03/16 10:22:34;;;;;;;;;;;;;;;16.77;39.74;93724.38;5042118;28;19931;-91
2023/03/16 10:25:18;;;;;;;;;;;;;;;16.77;39.87;93729.09;5025072;28;20019;-91
2023/03/16 10:27:44;;;;;;;;;;;;;;;16.81;39.83;93717.94;5048502;28;19929;-89
2023/03/16 10:30:33;;;;;;;;;;;;;;;16.82;40.01;93722.16;5032884;28;19925;-89
2023/03/16 10:33:18;;;;;;;;;;;;;;;16.81;39.99;93726.88;5050437;28;19925;-89
2023/03/16 10:35:45;;;;;;;;;;;;;;;16.81;40.05;93726.88;5034742;28;19968;-89
2023/03/16 10:38:31;;;;;;;;;;;;;;;16.80;39.96;93717.19;5041759;28;20496;-88
2023/03/16 10:40:57;;;;;;;;;;;;;;;16.81;39.94;93723.38;5043288;28;19932;-90
2023/03/16 10:43:23;;;;;;;;;;;;;;;16.80;40.10;93719.91;5030447;28;20358;-90
2023/03/16 10:45:48;;;;;;;;;;;;;;;16.78;40.07;93723.13;5030228;28;19932;-91
2023/03/16 10:48:19;;;;;;;;;;;;;;;16.78;40.14;93717.66;5044535;28;19953;-90
2023/03/16 10:50:48;;;;;;;;;;;;;;;16.78;39.35;93714.19;5031712;28;19928;-89
2023/03/16 10:53:18;;;;;;;;;;;;;;;16.77;39.29;93718.91;5042884;28;19925;-92
2023/03/16 10:55:44;;;;;;;;;;;;;;;16.74;38.46;93711.69;5035372;28;19925;-89
2023/03/16 10:58:09;;;;;;;;;;;;;;;16.72;38.83;93719.63;5033889;28;19925;-88
2023/03/16 11:00:36;;;;;;;;;;;;;;;16.73;38.40;93712.94;5013995;28;20550;-89
2023/03/16 11:03:11;;;;;;;;;;;;;;;16.74;38.19;93708.97;5044585;28;19920;-90
2023/03/16 11:05:37;;;;;;;;;;;;;;;16.75;38.64;93707.72;5018509;28;19967;-88
2023/03/16 11:08:09;;;;;;;;;;;;;;;16.75;39.00;93712.44;5041716;28;19964;-88
2023/03/16 11:10:38;;;;;;;;;;;;;;;16.74;38.97;93710.94;5013821;28;19972;-87
2023/03/16 11:13:18;;;;;;;;;;;;;;;16.74;39.36;93708.22;5025865;28;20327;-88
2023/03/16 11:16:00;;;;;;;;;;;;;;;16.74;39.71;93706.25;5021141;28;20341;-89
2023/03/16 11:18:29;;;;;;;;;;;;;;;16.76;39.57;93703.03;5025545;28;19928;-89
2023/03/16 11:20:55;;;;;;;;;;;;;;;16.76;39.65;93700.28;5043405;28;19968;-90
2023/03/16 11:23:24;;;;;;;;;;;;;;;16.76;39.56;93711.22;5026735;28;19956;-88
2023/03/16 11:25:50;;;;;;;;;;;;;;;16.76;39.79;93703.03;5050685;28;19931;-90
2023/03/16 11:28:16;;;;;;;;;;;;;;;16.75;40.06;93707.00;5021510;28;20025;-89
2023/03/16 11:30:43;;;;;;;;;;;;;;;16.76;39.82;93697.56;5044647;28;19960;-88
2023/03/16 11:33:09;;;;;;;;;;;;;;;16.79;39.90;93699.31;5034069;28;19972;-91
2023/03/16 11:35:38;;;;;;;;;;;;;;;16.76;39.84;93690.13;5032375;28;19925;-88
2023/03/16 11:38:16;;;;;;;;;;;;;;;16.77;39.71;93686.16;5049225;28;19928;-89
2023/03/16 11:40:44;;;;;;;;;;;;;;;16.79;39.90;93683.69;5054029;28;19925;-91
2023/03/16 11:43:18;;;;;;;;;;;;;;;16.78;39.82;93684.16;5052369;28;19931;-91
2023/03/16 11:45:47;;;;;;;;;;;;;;;16.79;39.77;93670.03;5032868;28;19964;-90
2023/03/16 11:48:24;;;;;;;;;;;;;;;16.82;39.95;93673.75;5051629;28;19916;-90
2023/03/16 11:50:50;;;;;;;;;;;;;;;16.81;39.91;93669.53;5052449;28;19928;-90
2023/03/16 11:53:28;;;;;;;;;;;;;;;16.82;39.86;93673.75;5048923;28;20536;-91
2023/03/16 11:55:54;;;;;;;;;;;;;;;16.80;39.99;93659.84;5039615;28;20016;-90
2023/03/16 11:58:33;;;;;;;;;;;;;;;16.80;40.08;93651.66;5052963;28;19975;-91
2023/03/16 12:01:07;;;;;;;;;;;;;;;16.79;40.15;93659.09;5023876;28;20000;-89
2023/03/16 12:03:32;;;;;;;;;;;;;;;16.79;39.79;93658.34;5031408;28;20016;-91
2023/03/16 12:06:23;;;;;;;;;;;;;;;16.77;39.80;93650.66;5110359;27;19931;-90
2023/03/16 12:09:12;;;;;;;;;;;;;;;16.76;39.22;93660.09;5089789;28;19959;-90
2023/03/16 12:11:57;;;;;;;;;;;;;;;16.76;39.34;93649.16;5111523;27;19928;-90
2023/03/16 12:14:32;;;;;;;;;;;;;;;16.78;39.22;93645.94;5091643;28;20005;-90
2023/03/16 12:16:58;;;;;;;;;;;;;;;16.78;39.31;93641.22;5107384;28;19924;-89
2023/03/16 12:19:31;;;;;;;;;;;;;;;16.81;39.89;93638.75;5120331;27;19932;-89
2023/03/16 12:22:00;;;;;;;;;;;;;;;16.81;39.74;93639.50;5088052;28;19928;-90
2023/03/16 12:24:26;;;;;;;;;;;;;;;16.84;39.77;93640.50;5108470;28;19925;-90
2023/03/16 12:27:00;;;;;;;;;;;;;;;16.86;39.64;93633.31;5068306;28;19945;-90
2023/03/16 12:29:45;;;;;;;;;;;;;;;16.84;39.73;93637.78;5089971;28;20003;-90
2023/03/16 12:32:29;;;;;;;;;;;;;;;16.84;40.03;93641.25;5112553;27;19935;-90
2023/03/16 12:34:55;;;;;;;;;;;;;;;16.84;39.98;93629.56;5102034;28;19971;-89
2023/03/16 12:37:20;;;;;;;;;;;;;;;16.84;39.78;93641.25;5105788;28;19928;-93
2023/03/16 12:39:50;;;;;;;;;;;;;;;16.84;39.80;93637.78;5111774;27;20004;-90
2023/03/16 12:42:32;;;;;;;;;;;;;;;16.84;39.93;93626.84;5119339;27;20386;-91
2023/03/16 12:45:02;;;;;;;;;;;;;;;16.84;39.91;93627.59;5112053;27;19974;-89
2023/03/16 12:47:37;;;;;;;;;;;;;;;16.84;39.71;93627.59;5099959;28;19935;-87
2023/03/16 12:50:04;;;;;;;;;;;;;;;16.76;36.68;93627.31;5097127;27;20375;-87